sensor_id;sensor_type;location;lat;lon;timestamp;pressure;altitude;pressure_sealevel;temperature;humidity
52855;BME280;38719;51.418;7.286;2022-09-09T00:00:12;99133.97;;;19.08;65.20
52855;BME280;38719;51.418;7.286;2022-09-09T00:02:42;99137.63;;;19.26;64.63
52855;BME280;38719;51.418;7.286;2022-09-09T00:05:23;99129.38;;;19.28;64.38
52855;BME280;38719;51.418;7.286;2022-09-09T00:07:57;99127.97;;;19.24;64.38
52855;BME280;38719;51.418;7.286;2022-09-09T00:10:29;99132.09;;;19.18;64.65
52855;BME280;38719;51.418;7.286;2022-09-09T00:13:02;99131.97;;;19.20;65.03
52855;BME280;38719;51.418;7.286;2022-09-09T00:15:38;99123.00;;;19.19;65.01
52855;BME280;38719;51.418;7.286;2022-09-09T00:18:14;99121.19;;;19.10;65.20
52855;BME280;38719;51.418;7.286;2022-09-09T00:20:49;99129.13;;;19.11;65.22
52855;BME280;38719;51.418;7.286;2022-09-09T00:23:25;99124.06;;;18.98;65.58
52855;BME280;38719;51.418;7.286;2022-09-09T00:26:02;99113.47;;;19.35;64.43
52855;BME280;38719;51.418;7.286;2022-09-09T00:28:33;99105.69;;;19.12;64.64
52855;BME280;38719;51.418;7.286;2022-09-09T00:31:11;99108.25;;;19.23;64.14
52855;BME280;38719;51.418;7.286;2022-09-09T00:33:40;99109.66;;;19.27;63.86
52855;BME280;38719;51.418;7.286;2022-09-09T00:36:13;99113.66;;;19.23;64.65
52855;BME280;38719;51.418;7.286;2022-09-09T00:38:45;99101.03;;;18.94;65.15
52855;BME280;38719;51.418;7.286;2022-09-09T00:41:19;99104.00;;;19.11;65.03
52855;BME280;38719;51.418;7.286;2022-09-09T00:43:56;99107.00;;;18.98;65.73
52855;BME280;38719;51.418;7.286;2022-09-09T00:46:51;99112.81;;;18.93;66.17
52855;BME280;38719;51.418;7.286;2022-09-09T00:49:32;99109.00;;;18.96;66.51
52855;BME280;38719;51.418;7.286;2022-09-09T00:52:17;99101.16;;;19.12;66.03
52855;BME280;38719;51.418;7.286;2022-09-09T00:54:57;99100.53;;;19.38;65.08
52855;BME280;38719;51.418;7.286;2022-09-09T00:57:27;99100.81;;;19.35;65.33
52855;BME280;38719;51.418;7.286;2022-09-09T01:00:16;99098.69;;;19.39;65.21
52855;BME280;38719;51.418;7.286;2022-09-09T01:02:54;99104.34;;;19.45;64.94
52855;BME280;38719;51.418;7.286;2022-09-09T01:05:34;99096.56;;;19.32;65.42
52855;BME280;38719;51.418;7.286;2022-09-09T01:08:09;99094.25;;;19.38;65.31
52855;BME280;38719;51.418;7.286;2022-09-09T01:10:45;99095.00;;;19.30;65.54
52855;BME280;38719;51.418;7.286;2022-09-09T01:13:22;99101.16;;;19.03;66.50
52855;BME280;38719;51.418;7.286;2022-09-09T01:15:50;99099.63;;;19.00;66.83
52855;BME280;38719;51.418;7.286;2022-09-09T01:18:27;99092.94;;;18.94;66.64
52855;BME280;38719;51.418;7.286;2022-09-09T01:21:04;99095.34;;;18.88;67.11
52855;BME280;38719;51.418;7.286;2022-09-09T01:23:49;99100.03;;;18.95;67.04
52855;BME280;38719;51.418;7.286;2022-09-09T01:26:26;99095.63;;;19.04;66.36
52855;BME280;38719;51.418;7.286;2022-09-09T01:28:54;99095.38;;;18.97;66.57
52855;BME280;38719;51.418;7.286;2022-09-09T01:31:26;99092.09;;;19.04;66.61
52855;BME280;38719;51.418;7.286;2022-09-09T01:33:54;99097.47;;;19.13;66.27
52855;BME280;38719;51.418;7.286;2022-09-09T01:36:28;99099.63;;;19.00;66.59
52855;BME280;38719;51.418;7.286;2022-09-09T01:38:56;99099.75;;;19.08;66.17
52855;BME280;38719;51.418;7.286;2022-09-09T01:41:25;99091.69;;;18.98;67.06
52855;BME280;38719;51.418;7.286;2022-09-09T01:43:54;99092.09;;;19.04;66.56
52855;BME280;38719;51.418;7.286;2022-09-09T01:46:22;99083.41;;;19.10;66.27
52855;BME280;38719;51.418;7.286;2022-09-09T01:48:51;99090.06;;;19.06;66.66
52855;BME280;38719;51.418;7.286;2022-09-09T01:51:20;99093.91;;;19.03;67.00
52855;BME280;38719;51.418;7.286;2022-09-09T01:53:47;99086.38;;;19.07;66.56
52855;BME280;38719;51.418;7.286;2022-09-09T01:56:24;99088.25;;;19.06;66.83
52855;BME280;38719;51.418;7.286;2022-09-09T01:59:08;99096.91;;;19.00;66.61
52855;BME280;38719;51.418;7.286;2022-09-09T02:01:48;99094.78;;;18.74;68.13
52855;BME280;38719;51.418;7.286;2022-09-09T02:04:36;99093.47;;;18.88;67.39
52855;BME280;38719;51.418;7.286;2022-09-09T02:07:11;99090.38;;;19.03;66.60
52855;BME280;38719;51.418;7.286;2022-09-09T02:09:44;99086.81;;;19.12;66.06
52855;BME280;38719;51.418;7.286;2022-09-09T02:12:16;99096.91;;;19.10;66.31
52855;BME280;38719;51.418;7.286;2022-09-09T02:14:51;99091.50;;;19.20;65.62
52855;BME280;38719;51.418;7.286;2022-09-09T02:17:25;99084.69;;;19.06;66.50
52855;BME280;38719;51.418;7.286;2022-09-09T02:19:58;99087.94;;;19.09;65.98
52855;BME280;38719;51.418;7.286;2022-09-09T02:22:28;99093.03;;;19.22;65.55
52855;BME280;38719;51.418;7.286;2022-09-09T02:24:58;99089.81;;;19.09;65.58
52855;BME280;38719;51.418;7.286;2022-09-09T02:27:27;99092.66;;;18.97;66.10
52855;BME280;38719;51.418;7.286;2022-09-09T02:29:57;99089.09;;;19.07;65.96
52855;BME280;38719;51.418;7.286;2022-09-09T02:32:28;99094.06;;;19.01;65.76
52855;BME280;38719;51.418;7.286;2022-09-09T02:35:00;99092.19;;;19.12;65.68
52855;BME280;38719;51.418;7.286;2022-09-09T02:37:32;99103.84;;;18.83;66.36
52855;BME280;38719;51.418;7.286;2022-09-09T02:40:02;99095.03;;;18.81;66.27
52855;BME280;38719;51.418;7.286;2022-09-09T02:42:30;99093.63;;;18.87;66.14
52855;BME280;38719;51.418;7.286;2022-09-09T02:44:59;99097.47;;;18.84;66.24
52855;BME280;38719;51.418;7.286;2022-09-09T02:47:31;99096.63;;;18.83;66.42
52855;BME280;38719;51.418;7.286;2022-09-09T02:50:10;99094.94;;;18.73;66.95
52855;BME280;38719;51.418;7.286;2022-09-09T02:52:48;99092.34;;;18.81;66.54
52855;BME280;38719;51.418;7.286;2022-09-09T02:55:26;99095.34;;;18.78;66.55
52855;BME280;38719;51.418;7.286;2022-09-09T02:57:58;99093.38;;;18.80;66.37
52855;BME280;38719;51.418;7.286;2022-09-09T03:00:28;99088.81;;;18.80;66.30
52855;BME280;38719;51.418;7.286;2022-09-09T03:02:56;99086.53;;;18.76;66.46
52855;BME280;38719;51.418;7.286;2022-09-09T03:05:24;99086.41;;;18.77;65.95
52855;BME280;38719;51.418;7.286;2022-09-09T03:07:51;99093.78;;;18.65;67.03
52855;BME280;38719;51.418;7.286;2022-09-09T03:10:19;99086.28;;;18.59;67.26
52855;BME280;38719;51.418;7.286;2022-09-09T03:12:46;99080.03;;;18.49;67.52
52855;BME280;38719;51.418;7.286;2022-09-09T03:15:14;99084.28;;;18.71;67.13
52855;BME280;38719;51.418;7.286;2022-09-09T03:17:43;99073.94;;;18.66;67.07
52855;BME280;38719;51.418;7.286;2022-09-09T03:20:10;99071.38;;;18.65;67.14
52855;BME280;38719;51.418;7.286;2022-09-09T03:22:38;99067.25;;;18.51;67.39
52855;BME280;38719;51.418;7.286;2022-09-09T03:25:06;99073.50;;;18.61;66.34
52855;BME280;38719;51.418;7.286;2022-09-09T03:27:34;99064.13;;;18.46;67.54
52855;BME280;38719;51.418;7.286;2022-09-09T03:30:02;99066.25;;;18.72;66.38
52855;BME280;38719;51.418;7.286;2022-09-09T03:32:31;99069.53;;;18.65;66.29
52855;BME280;38719;51.418;7.286;2022-09-09T03:35:00;99069.53;;;18.56;66.72
52855;BME280;38719;51.418;7.286;2022-09-09T03:37:27;99067.81;;;18.64;66.68
52855;BME280;38719;51.418;7.286;2022-09-09T03:39:55;99064.69;;;18.40;66.93
52855;BME280;38719;51.418;7.286;2022-09-09T03:42:31;99068.94;;;18.52;66.81
52855;BME280;38719;51.418;7.286;2022-09-09T03:44:58;99066.09;;;18.44;67.12
52855;BME280;38719;51.418;7.286;2022-09-09T03:47:26;99066.97;;;18.44;66.84
52855;BME280;38719;51.418;7.286;2022-09-09T03:49:55;99067.53;;;18.48;67.17
52855;BME280;38719;51.418;7.286;2022-09-09T03:52:22;99073.94;;;18.57;66.81
52855;BME280;38719;51.418;7.286;2022-09-09T03:54:52;99069.22;;;18.68;66.12
52855;BME280;38719;51.418;7.286;2022-09-09T03:57:20;99078.03;;;18.71;65.77
52855;BME280;38719;51.418;7.286;2022-09-09T03:59:49;99073.50;;;18.61;66.09
52855;BME280;38719;51.418;7.286;2022-09-09T04:02:17;99079.75;;;18.72;66.26
52855;BME280;38719;51.418;7.286;2022-09-09T04:04:44;99085.13;;;18.72;66.22
52855;BME280;38719;51.418;7.286;2022-09-09T04:07:12;99078.03;;;18.71;66.09
52855;BME280;38719;51.418;7.286;2022-09-09T04:09:40;99076.06;;;18.53;66.64
52855;BME280;38719;51.418;7.286;2022-09-09T04:12:08;99079.00;;;18.60;66.16
52855;BME280;38719;51.418;7.286;2022-09-09T04:14:39;99077.34;;;18.59;66.43
52855;BME280;38719;51.418;7.286;2022-09-09T04:17:08;99072.78;;;18.59;66.59
52855;BME280;38719;51.418;7.286;2022-09-09T04:19:36;99067.81;;;18.64;66.05
52855;BME280;38719;51.418;7.286;2022-09-09T04:22:04;99064.13;;;18.56;66.54
52855;BME280;38719;51.418;7.286;2022-09-09T04:24:31;99067.25;;;18.51;66.70
52855;BME280;38719;51.418;7.286;2022-09-09T04:26:59;99071.22;;;18.57;66.55
52855;BME280;38719;51.418;7.286;2022-09-09T04:29:26;99070.09;;;18.59;66.66
52855;BME280;38719;51.418;7.286;2022-09-09T04:31:54;99069.81;;;18.52;66.24
52855;BME280;38719;51.418;7.286;2022-09-09T04:34:23;99068.13;;;18.51;66.83
52855;BME280;38719;51.418;7.286;2022-09-09T04:36:51;99073.50;;;18.61;66.60
52855;BME280;38719;51.418;7.286;2022-09-09T04:39:19;99072.38;;;18.64;66.16
52855;BME280;38719;51.418;7.286;2022-09-09T04:41:46;99079.59;;;18.63;66.57
52855;BME280;38719;51.418;7.286;2022-09-09T04:44:14;99075.47;;;18.49;66.42
52855;BME280;38719;51.418;7.286;2022-09-09T04:46:42;99071.63;;;18.42;66.57
52855;BME280;38719;51.418;7.286;2022-09-09T04:49:09;99068.22;;;18.50;66.66
52855;BME280;38719;51.418;7.286;2022-09-09T04:51:42;99076.06;;;18.53;66.03
52855;BME280;38719;51.418;7.286;2022-09-09T04:54:09;99073.19;;;18.45;67.03
52855;BME280;38719;51.418;7.286;2022-09-09T04:56:37;99072.22;;;18.46;66.96
52855;BME280;38719;51.418;7.286;2022-09-09T04:59:05;99080.59;;;18.52;66.62
52855;BME280;38719;51.418;7.286;2022-09-09T05:01:32;99073.78;;;18.58;66.47
52855;BME280;38719;51.418;7.286;2022-09-09T05:04:01;99069.78;;;18.62;66.13
52855;BME280;38719;51.418;7.286;2022-09-09T05:06:29;99080.31;;;18.65;66.17
52855;BME280;38719;51.418;7.286;2022-09-09T05:08:58;99073.94;;;18.66;65.88
52855;BME280;38719;51.418;7.286;2022-09-09T05:11:28;99071.50;;;18.73;65.93
52855;BME280;38719;51.418;7.286;2022-09-09T05:13:56;99075.63;;;18.67;65.52
52855;BME280;38719;51.418;7.286;2022-09-09T05:16:23;99079.47;;;18.65;66.18
52855;BME280;38719;51.418;7.286;2022-09-09T05:18:51;99074.06;;;18.65;65.87
52855;BME280;38719;51.418;7.286;2022-09-09T05:21:20;99078.44;;;18.66;65.87
52855;BME280;38719;51.418;7.286;2022-09-09T05:23:49;99078.03;;;18.71;65.73
52855;BME280;38719;51.418;7.286;2022-09-09T05:26:19;99078.59;;;18.84;65.81
52855;BME280;38719;51.418;7.286;2022-09-09T05:28:48;99069.50;;;18.85;65.63
52855;BME280;38719;51.418;7.286;2022-09-09T05:31:17;99075.75;;;18.76;65.43
52855;BME280;38719;51.418;7.286;2022-09-09T05:33:46;99069.22;;;18.88;65.18
52855;BME280;38719;51.418;7.286;2022-09-09T05:36:17;99075.75;;;18.76;65.57
52855;BME280;38719;51.418;7.286;2022-09-09T05:38:45;99083.41;;;18.90;65.44
52855;BME280;38719;51.418;7.286;2022-09-09T05:41:13;99084.97;;;18.83;65.33
52855;BME280;38719;51.418;7.286;2022-09-09T05:43:44;99085.69;;;18.85;65.81
52855;BME280;38719;51.418;7.286;2022-09-09T05:46:17;99084.00;;;18.84;65.43
52855;BME280;38719;51.418;7.286;2022-09-09T05:48:46;99080.44;;;19.03;65.29
52855;BME280;38719;51.418;7.286;2022-09-09T05:51:15;99085.97;;;19.11;65.26
52855;BME280;38719;51.418;7.286;2022-09-09T05:53:44;99089.66;;;19.10;64.62
52855;BME280;38719;51.418;7.286;2022-09-09T05:56:14;99090.06;;;19.06;64.74
52855;BME280;38719;51.418;7.286;2022-09-09T05:58:44;99087.69;;;19.03;65.16
52855;BME280;38719;51.418;7.286;2022-09-09T06:01:14;99085.72;;;18.95;65.21
52855;BME280;38719;51.418;7.286;2022-09-09T06:03:44;99090.78;;;18.88;65.29
52855;BME280;38719;51.418;7.286;2022-09-09T06:06:13;99096.47;;;18.75;65.74
52855;BME280;38719;51.418;7.286;2022-09-09T06:08:42;99094.94;;;18.92;65.58
52855;BME280;38719;51.418;7.286;2022-09-09T06:11:12;99090.97;;;18.96;65.32
52855;BME280;38719;51.418;7.286;2022-09-09T06:13:41;99085.81;;;19.03;65.18
52855;BME280;38719;51.418;7.286;2022-09-09T06:16:11;99096.78;;;19.01;65.17
52855;BME280;38719;51.418;7.286;2022-09-09T06:18:40;99092.25;;;19.02;64.99
52855;BME280;38719;51.418;7.286;2022-09-09T06:21:11;99089.66;;;19.00;65.20
52855;BME280;38719;51.418;7.286;2022-09-09T06:23:42;99089.97;;;19.07;65.10
52855;BME280;38719;51.418;7.286;2022-09-09T06:26:12;99093.81;;;18.95;65.26
52855;BME280;38719;51.418;7.286;2022-09-09T06:28:40;99087.69;;;19.03;65.26
52855;BME280;38719;51.418;7.286;2022-09-09T06:31:12;99095.91;;;19.11;65.01
52855;BME280;38719;51.418;7.286;2022-09-09T06:33:42;99084.53;;;19.17;65.01
52855;BME280;38719;51.418;7.286;2022-09-09T06:36:11;99091.50;;;19.10;64.94
52855;BME280;38719;51.418;7.286;2022-09-09T06:38:40;99090.22;;;19.04;65.39
52855;BME280;38719;51.418;7.286;2022-09-09T06:41:09;99084.56;;;19.07;65.51
52855;BME280;38719;51.418;7.286;2022-09-09T06:43:37;99088.41;;;19.05;65.58
52855;BME280;38719;51.418;7.286;2022-09-09T06:46:06;99093.22;;;19.01;65.27
52855;BME280;38719;51.418;7.286;2022-09-09T06:48:36;99095.94;;;19.01;65.54
52855;BME280;38719;51.418;7.286;2022-09-09T06:51:08;99099.31;;;18.93;65.92
52855;BME280;38719;51.418;7.286;2022-09-09T06:53:38;99097.06;;;18.98;65.60
52855;BME280;38719;51.418;7.286;2022-09-09T06:56:18;99096.19;;;18.88;65.78
52855;BME280;38719;51.418;7.286;2022-09-09T06:58:47;99099.59;;;18.90;66.19
52855;BME280;38719;51.418;7.286;2022-09-09T07:01:16;99101.31;;;19.11;65.17
52855;BME280;38719;51.418;7.286;2022-09-09T07:03:47;99095.03;;;19.10;64.86
52855;BME280;38719;51.418;7.286;2022-09-09T07:06:18;99097.59;;;19.12;65.14
52855;BME280;38719;51.418;7.286;2022-09-09T07:08:49;99103.84;;;19.12;64.55
52855;BME280;38719;51.418;7.286;2022-09-09T07:11:23;99103.72;;;19.04;64.82
52855;BME280;38719;51.418;7.286;2022-09-09T07:13:53;99107.88;;;18.98;64.32
52855;BME280;38719;51.418;7.286;2022-09-09T07:16:21;99117.63;;;18.70;65.60
52855;BME280;38719;51.418;7.286;2022-09-09T07:18:51;99116.19;;;18.85;65.26
52855;BME280;38719;51.418;7.286;2022-09-09T07:21:21;99120.06;;;18.93;65.02
52855;BME280;38719;51.418;7.286;2022-09-09T07:23:50;99122.91;;;19.01;65.36
52855;BME280;38719;51.418;7.286;2022-09-09T07:26:20;99114.78;;;19.21;64.49
52855;BME280;38719;51.418;7.286;2022-09-09T07:28:49;99116.75;;;19.28;64.32
52855;BME280;38719;51.418;7.286;2022-09-09T07:31:19;99114.94;;;19.09;64.26
52855;BME280;38719;51.418;7.286;2022-09-09T07:33:47;99128.81;;;19.24;64.05
52855;BME280;38719;51.418;7.286;2022-09-09T07:36:19;99132.06;;;19.28;64.04
52855;BME280;38719;51.418;7.286;2022-09-09T07:38:50;99125.44;;;19.12;64.38
52855;BME280;38719;51.418;7.286;2022-09-09T07:41:21;99121.06;;;19.01;64.62
52855;BME280;38719;51.418;7.286;2022-09-09T07:43:49;99127.88;;;18.96;64.89
52855;BME280;38719;51.418;7.286;2022-09-09T07:46:18;99132.81;;;19.00;64.46
52855;BME280;38719;51.418;7.286;2022-09-09T07:48:48;99129.28;;;19.20;63.92
52855;BME280;38719;51.418;7.286;2022-09-09T07:51:21;99127.25;;;19.31;63.70
52855;BME280;38719;51.418;7.286;2022-09-09T07:53:52;99126.56;;;19.29;63.97
52855;BME280;38719;51.418;7.286;2022-09-09T07:56:20;99126.41;;;19.31;63.93
52855;BME280;38719;51.418;7.286;2022-09-09T07:58:50;99120.00;;;19.42;63.32
52855;BME280;38719;51.418;7.286;2022-09-09T08:01:21;99123.41;;;19.34;64.17
52855;BME280;38719;51.418;7.286;2022-09-09T08:03:54;99125.38;;;19.42;63.38
52855;BME280;38719;51.418;7.286;2022-09-09T08:06:23;99129.91;;;19.51;63.03
52855;BME280;38719;51.418;7.286;2022-09-09T08:08:51;99133.34;;;19.33;62.82
52855;BME280;38719;51.418;7.286;2022-09-09T08:11:19;99133.34;;;19.43;62.80
52855;BME280;38719;51.418;7.286;2022-09-09T08:13:46;99130.63;;;19.53;62.27
52855;BME280;38719;51.418;7.286;2022-09-09T08:16:21;99128.22;;;19.40;62.06
52855;BME280;38719;51.418;7.286;2022-09-09T08:18:49;99125.53;;;19.30;61.80
52855;BME280;38719;51.418;7.286;2022-09-09T08:21:19;99130.88;;;19.50;61.86
52855;BME280;38719;51.418;7.286;2022-09-09T08:23:51;99140.91;;;19.68;61.77
52855;BME280;38719;51.418;7.286;2022-09-09T08:26:25;99131.16;;;19.57;61.82
52855;BME280;38719;51.418;7.286;2022-09-09T08:28:55;99129.28;;;19.67;61.17
52855;BME280;38719;51.418;7.286;2022-09-09T08:31:24;99127.25;;;19.79;61.14
52855;BME280;38719;51.418;7.286;2022-09-09T08:33:52;99136.44;;;19.96;60.46
52855;BME280;38719;51.418;7.286;2022-09-09T08:36:22;99136.03;;;19.91;60.77
52855;BME280;38719;51.418;7.286;2022-09-09T08:38:55;99128.09;;;19.89;60.61
52855;BME280;38719;51.418;7.286;2022-09-09T08:41:35;99134.75;;;19.95;60.18
52855;BME280;38719;51.418;7.286;2022-09-09T08:44:09;99140.50;;;20.10;59.95
52855;BME280;38719;51.418;7.286;2022-09-09T08:46:46;99131.09;;;20.14;59.05
52855;BME280;38719;51.418;7.286;2022-09-09T08:49:43;99133.84;;;20.04;58.97
52855;BME280;38719;51.418;7.286;2022-09-09T08:52:19;99136.19;;;19.89;59.61
52855;BME280;38719;51.418;7.286;2022-09-09T08:54:51;99132.53;;;20.08;59.35
52855;BME280;38719;51.418;7.286;2022-09-09T08:57:23;99132.91;;;20.23;58.60
52855;BME280;38719;51.418;7.286;2022-09-09T08:59:54;99148.50;;;20.29;58.10
52855;BME280;38719;51.418;7.286;2022-09-09T09:02:26;99131.38;;;20.39;57.73
52855;BME280;38719;51.418;7.286;2022-09-09T09:05:11;99124.72;;;20.51;57.55
52855;BME280;38719;51.418;7.286;2022-09-09T09:07:53;99134.78;;;20.59;56.40
52855;BME280;38719;51.418;7.286;2022-09-09T09:10:36;99141.91;;;20.60;55.64
52855;BME280;38719;51.418;7.286;2022-09-09T09:13:13;99138.56;;;20.48;54.97
52855;BME280;38719;51.418;7.286;2022-09-09T09:15:44;99142.44;;;20.64;55.45
52855;BME280;38719;51.418;7.286;2022-09-09T09:18:14;99143.22;;;20.74;55.10
52855;BME280;38719;51.418;7.286;2022-09-09T09:20:50;99138.06;;;20.81;54.98
52855;BME280;38719;51.418;7.286;2022-09-09T09:23:23;99145.63;;;20.95;54.21
52855;BME280;38719;51.418;7.286;2022-09-09T09:25:56;99145.88;;;20.84;54.33
52855;BME280;38719;51.418;7.286;2022-09-09T09:28:29;99138.63;;;20.84;53.99
52855;BME280;38719;51.418;7.286;2022-09-09T09:30:59;99139.78;;;20.82;53.95
52855;BME280;38719;51.418;7.286;2022-09-09T09:33:35;99129.03;;;20.72;54.25
52855;BME280;38719;51.418;7.286;2022-09-09T09:36:07;99142.66;;;20.70;54.37
52855;BME280;38719;51.418;7.286;2022-09-09T09:38:36;99136.81;;;20.75;54.43
52855;BME280;38719;51.418;7.286;2022-09-09T09:41:37;99141.53;;;20.91;54.32
52855;BME280;38719;51.418;7.286;2022-09-09T09:44:23;99141.91;;;21.14;53.92
52855;BME280;38719;51.418;7.286;2022-09-09T09:46:52;99144.06;;;21.29;53.00
52855;BME280;38719;51.418;7.286;2022-09-09T09:49:19;99146.63;;;21.12;52.47
52855;BME280;38719;51.418;7.286;2022-09-09T09:51:47;99149.28;;;21.04;52.44
52855;BME280;38719;51.418;7.286;2022-09-09T09:54:21;99151.28;;;20.84;53.36
52855;BME280;38719;51.418;7.286;2022-09-09T09:56:52;99149.81;;;20.71;54.17
52855;BME280;38719;51.418;7.286;2022-09-09T09:59:22;99146.84;;;20.65;54.45
52855;BME280;38719;51.418;7.286;2022-09-09T10:02:14;99154.34;;;20.71;54.45
52855;BME280;38719;51.418;7.286;2022-09-09T10:04:42;99144.41;;;20.89;54.47
52855;BME280;38719;51.418;7.286;2022-09-09T10:07:12;99146.31;;;21.15;54.26
52855;BME280;38719;51.418;7.286;2022-09-09T10:09:40;99146.81;;;21.37;53.66
52855;BME280;38719;51.418;7.286;2022-09-09T10:12:17;99148.84;;;21.35;52.91
52855;BME280;38719;51.418;7.286;2022-09-09T10:14:53;99148.22;;;21.41;52.57
52855;BME280;38719;51.418;7.286;2022-09-09T10:17:27;99153.09;;;21.37;52.52
52855;BME280;38719;51.418;7.286;2022-09-09T10:20:11;99150.94;;;21.49;52.13
52855;BME280;38719;51.418;7.286;2022-09-09T10:22:45;99144.06;;;21.55;52.18
52855;BME280;38719;51.418;7.286;2022-09-09T10:25:21;99156.13;;;21.61;51.20
52855;BME280;38719;51.418;7.286;2022-09-09T10:28:06;99147.41;;;21.49;51.21
52855;BME280;38719;51.418;7.286;2022-09-09T10:30:48;99151.28;;;21.46;50.94
52855;BME280;38719;51.418;7.286;2022-09-09T10:33:22;99144.63;;;21.40;50.40
52855;BME280;38719;51.418;7.286;2022-09-09T10:36:02;99137.50;;;21.39;50.19
52855;BME280;38719;51.418;7.286;2022-09-09T10:38:39;99142.16;;;21.47;50.33
52855;BME280;38719;51.418;7.286;2022-09-09T10:41:19;99129.38;;;21.57;49.40
52855;BME280;38719;51.418;7.286;2022-09-09T10:44:11;99133.31;;;21.63;48.90
52855;BME280;38719;51.418;7.286;2022-09-09T10:46:51;99134.44;;;21.87;48.92
52855;BME280;38719;51.418;7.286;2022-09-09T10:49:27;99132.53;;;21.79;47.91
52855;BME280;38719;51.418;7.286;2022-09-09T10:52:09;99123.47;;;21.97;47.91
52855;BME280;38719;51.418;7.286;2022-09-09T10:54:51;99118.59;;;22.09;47.21
52855;BME280;38719;51.418;7.286;2022-09-09T10:57:27;99117.94;;;22.15;47.84
52855;BME280;38719;51.418;7.286;2022-09-09T11:00:03;99116.97;;;22.24;47.62
52855;BME280;38719;51.418;7.286;2022-09-09T11:02:33;99123.94;;;22.27;47.63
52855;BME280;38719;51.418;7.286;2022-09-09T11:05:05;99119.53;;;22.34;47.27
52855;BME280;38719;51.418;7.286;2022-09-09T11:07:37;99120.44;;;22.43;47.52
52855;BME280;38719;51.418;7.286;2022-09-09T11:10:17;99117.78;;;22.67;47.48
52855;BME280;38719;51.418;7.286;2022-09-09T11:12:48;99118.81;;;22.23;47.23
52855;BME280;38719;51.418;7.286;2022-09-09T11:15:25;99117.81;;;22.25;47.17
52855;BME280;38719;51.418;7.286;2022-09-09T11:17:58;99122.28;;;22.42;46.57
52855;BME280;38719;51.418;7.286;2022-09-09T11:20:28;99119.47;;;22.68;46.43
52855;BME280;38719;51.418;7.286;2022-09-09T11:23:01;99113.53;;;22.65;45.90
52855;BME280;38719;51.418;7.286;2022-09-09T11:25:34;99123.53;;;22.64;46.29
52855;BME280;38719;51.418;7.286;2022-09-09T11:28:24;99115.53;;;22.54;45.84
52855;BME280;38719;51.418;7.286;2022-09-09T11:31:02;99108.91;;;22.41;46.68
52855;BME280;38719;51.418;7.286;2022-09-09T11:34:02;99113.88;;;22.70;46.28
52855;BME280;38719;51.418;7.286;2022-09-09T11:36:56;99111.19;;;23.03;46.11
52855;BME280;38719;51.418;7.286;2022-09-09T11:39:46;99110.47;;;22.93;45.44
52855;BME280;38719;51.418;7.286;2022-09-09T11:42:20;99105.75;;;22.78;45.50
52855;BME280;38719;51.418;7.286;2022-09-09T11:44:48;99106.75;;;22.85;45.79
52855;BME280;38719;51.418;7.286;2022-09-09T11:47:20;99107.06;;;22.58;45.81
52855;BME280;38719;51.418;7.286;2022-09-09T11:49:50;99102.16;;;22.61;46.00
52855;BME280;38719;51.418;7.286;2022-09-09T11:52:22;99104.69;;;22.63;45.89
52855;BME280;38719;51.418;7.286;2022-09-09T11:54:54;99107.44;;;22.20;46.39
52855;BME280;38719;51.418;7.286;2022-09-09T11:57:32;99111.34;;;22.09;47.07
52855;BME280;38719;51.418;7.286;2022-09-09T12:00:03;99105.19;;;21.99;46.96
52855;BME280;38719;51.418;7.286;2022-09-09T12:02:32;99111.47;;;21.99;47.42
52855;BME280;38719;51.418;7.286;2022-09-09T12:05:02;99106.19;;;21.98;47.44
52855;BME280;38719;51.418;7.286;2022-09-09T12:07:37;99109.94;;;22.05;47.16
52855;BME280;38719;51.418;7.286;2022-09-09T12:10:20;99119.72;;;21.89;48.91
52855;BME280;38719;51.418;7.286;2022-09-09T12:12:49;99121.22;;;21.84;51.47
52855;BME280;38719;51.418;7.286;2022-09-09T12:15:23;99124.91;;;21.74;52.62
52855;BME280;38719;51.418;7.286;2022-09-09T12:17:54;99135.41;;;21.51;54.48
52855;BME280;38719;51.418;7.286;2022-09-09T12:20:33;99139.03;;;21.42;55.23
52855;BME280;38719;51.418;7.286;2022-09-09T12:23:19;99158.31;;;21.13;56.94
52855;BME280;38719;51.418;7.286;2022-09-09T12:26:01;99153.91;;;20.93;57.63
52855;BME280;38719;51.418;7.286;2022-09-09T12:28:50;99143.91;;;21.12;58.51
52855;BME280;38719;51.418;7.286;2022-09-09T12:31:23;99143.78;;;21.14;59.21
52855;BME280;38719;51.418;7.286;2022-09-09T12:33:54;99138.31;;;21.32;59.70
52855;BME280;38719;51.418;7.286;2022-09-09T12:36:25;99127.97;;;21.53;58.38
52855;BME280;38719;51.418;7.286;2022-09-09T12:38:55;99129.78;;;21.45;58.86
52855;BME280;38719;51.418;7.286;2022-09-09T12:41:27;99120.50;;;21.55;59.12
52855;BME280;38719;51.418;7.286;2022-09-09T12:44:03;99126.84;;;21.38;58.96
52855;BME280;38719;51.418;7.286;2022-09-09T12:46:35;99126.66;;;21.57;58.18
52855;BME280;38719;51.418;7.286;2022-09-09T12:49:05;99123.19;;;21.47;58.36
52855;BME280;38719;51.418;7.286;2022-09-09T12:51:51;99128.19;;;21.34;58.23
52855;BME280;38719;51.418;7.286;2022-09-09T12:54:19;99132.91;;;21.32;58.46
52855;BME280;38719;51.418;7.286;2022-09-09T12:56:48;99144.22;;;21.53;57.63
52855;BME280;38719;51.418;7.286;2022-09-09T12:59:23;99140.94;;;21.68;59.33
52855;BME280;38719;51.418;7.286;2022-09-09T13:01:58;99131.00;;;21.50;58.83
52855;BME280;38719;51.418;7.286;2022-09-09T13:04:27;99135.41;;;21.51;59.47
52855;BME280;38719;51.418;7.286;2022-09-09T13:07:05;99124.00;;;21.66;58.96
52855;BME280;38719;51.418;7.286;2022-09-09T13:09:33;99125.44;;;21.78;59.03
52855;BME280;38719;51.418;7.286;2022-09-09T13:12:02;99118.59;;;21.66;59.50
52855;BME280;38719;51.418;7.286;2022-09-09T13:14:33;99112.66;;;21.97;58.77
52855;BME280;38719;51.418;7.286;2022-09-09T13:17:05;99103.50;;;22.06;59.31
52855;BME280;38719;51.418;7.286;2022-09-09T13:19:36;99097.13;;;22.15;58.94
52855;BME280;38719;51.418;7.286;2022-09-09T13:22:12;99095.16;;;22.42;57.98
52855;BME280;38719;51.418;7.286;2022-09-09T13:24:41;99098.25;;;22.56;57.29
52855;BME280;38719;51.418;7.286;2022-09-09T13:27:24;99106.75;;;22.77;56.59